Time;durP1;ratioP1;P1;durP2;ratioP2;P2;SDS_P1;SDS_P2;PMS_P1;PMS_P2;Temp;Humidity;BMP_temperature;BMP_pressure;BME280_temperature;BME280_humidity;BME280_pressure;Samples;Min_cycle;Max_cycle;Signal;HPM_P1;HPM_P2
2023/12/21 00:01:18;;;;;;;3.90;1.75;;;;;;;7.06;55.22;95154.25;6192516;23;20069;-85
2023/12/21 00:03:43;;;;;;;4.20;1.90;;;;;;;6.92;55.41;95141.94;6192374;23;20012;-84
2023/12/21 00:06:09;;;;;;;2.38;1.90;;;;;;;6.87;55.83;95134.66;6188860;23;20020;-85
2023/12/21 00:08:37;;;;;;;2.83;2.00;;;;;;;6.81;56.29;95161.13;6210648;23;20023;-85
2023/12/21 00:11:03;;;;;;;4.40;2.08;;;;;;;7.03;55.69;95147.63;6192343;23;20008;-85
2023/12/21 00:13:28;;;;;;;4.38;2.20;;;;;;;7.05;55.79;95145.69;6192928;23;20016;-85
2023/12/21 00:15:54;;;;;;;3.10;2.17;;;;;;;6.93;56.42;95156.47;6194725;23;20016;-85
2023/12/21 00:18:20;;;;;;;5.43;2.40;;;;;;;7.02;56.49;95164.09;6219620;23;20051;-85
2023/12/21 00:20:45;;;;;;;2.83;2.10;;;;;;;7.03;56.79;95150.22;6194575;23;20035;-84
2023/12/21 00:23:14;;;;;;;2.83;2.13;;;;;;;6.98;56.88;95155.03;6193665;23;20016;-85
2023/12/21 00:25:41;;;;;;;3.25;2.17;;;;;;;7.05;56.46;95140.53;6193214;23;20087;-85
2023/12/21 00:28:06;;;;;;;3.97;1.98;;;;;;;7.05;56.87;95148.28;6193193;23;20047;-85
2023/12/21 00:30:32;;;;;;;3.85;2.03;;;;;;;7.15;57.09;95157.69;6168100;23;20086;-85
2023/12/21 00:32:57;;;;;;;4.18;2.40;;;;;;;7.14;56.90;95150.88;6193111;23;20004;-85
2023/12/21 00:35:22;;;;;;;3.88;2.20;;;;;;;7.06;57.25;95146.50;6219388;23;19996;-85
2023/12/21 00:37:48;;;;;;;3.95;2.20;;;;;;;7.21;56.74;95157.84;6194316;23;20065;-85
2023/12/21 00:40:13;;;;;;;3.35;2.30;;;;;;;7.07;56.79;95148.13;6194387;23;20058;-85
2023/12/21 00:42:41;;;;;;;2.60;2.25;;;;;;;7.09;56.77;95140.22;6219360;23;20012;-84
2023/12/21 00:45:07;;;;;;;3.78;2.20;;;;;;;7.13;56.72;95144.91;6195011;23;20008;-84
2023/12/21 00:47:33;;;;;;;6.45;2.50;;;;;;;7.25;56.00;95142.84;6219107;23;20004;-85
2023/12/21 00:49:58;;;;;;;3.45;2.60;;;;;;;7.27;55.98;95140.91;6219298;23;20011;-85
2023/12/21 00:52:24;;;;;;;3.53;2.22;;;;;;;7.15;56.62;95140.38;6193898;23;20008;-85
2023/12/21 00:54:50;;;;;;;3.47;2.40;;;;;;;7.26;56.15;95139.28;6194691;23;20012;-85
2023/12/21 00:57:15;;;;;;;7.47;2.70;;;;;;;7.16;57.05;95130.84;6169712;23;20015;-84
2023/12/21 00:59:40;;;;;;;4.05;2.65;;;;;;;7.18;57.28;95129.75;6193617;23;20016;-85
2023/12/21 01:02:06;;;;;;;5.13;2.70;;;;;;;7.32;56.80;95138.66;6193893;23;20016;-85
2023/12/21 01:04:31;;;;;;;6.13;3.00;;;;;;;6.88;58.33;95120.75;6194694;23;20031;-85
2023/12/21 01:06:57;;;;;;;4.60;3.00;;;;;;;6.87;58.38;95124.31;6193473;23;20004;-85
2023/12/21 01:09:22;;;;;;;4.28;3.00;;;;;;;6.94;57.79;95114.16;6194184;23;20023;-85
2023/12/21 01:11:48;;;;;;;4.15;3.03;;;;;;;7.00;58.29;95129.84;6194215;23;20012;-84
2023/12/21 01:14:13;;;;;;;4.88;3.22;;;;;;;7.08;57.84;95118.72;6194129;23;20019;-84
2023/12/21 01:16:39;;;;;;;4.85;3.50;;;;;;;6.80;58.50;95124.13;6194171;23;20059;-85
2023/12/21 01:19:04;;;;;;;5.00;3.70;;;;;;;6.99;58.13;95130.03;6218896;23;20007;-85
2023/12/21 01:21:30;;;;;;;6.75;3.78;;;;;;;6.80;58.90;95128.50;6193895;23;20012;-85
2023/12/21 01:23:55;;;;;;;4.28;3.40;;;;;;;6.83;58.03;95126.41;6194147;23;20099;-84
2023/12/21 01:26:20;;;;;;;4.85;3.38;;;;;;;6.81;58.21;95130.09;6193222;23;19996;-85
2023/12/21 01:28:46;;;;;;;5.38;3.95;;;;;;;6.63;59.31;95130.22;6193920;23;20012;-85
2023/12/21 01:31:11;;;;;;;6.22;3.60;;;;;;;6.56;59.48;95132.59;6194197;23;20018;-85
2023/12/21 01:33:37;;;;;;;6.65;3.50;;;;;;;6.58;58.71;95138.41;6193588;23;20015;-85
2023/12/21 01:36:07;;;;;;;6.47;3.67;;;;;;;6.38;59.36;95124.94;6193674;23;20008;-84
2023/12/21 01:38:34;;;;;;;5.60;3.75;;;;;;;6.49;59.58;95139.34;6217909;23;20083;-85
2023/12/21 01:41:00;;;;;;;5.47;3.80;;;;;;;6.47;60.34;95136.09;6192124;23;20008;-84
2023/12/21 01:43:25;;;;;;;4.78;3.40;;;;;;;6.55;59.66;95133.56;6194048;23;20018;-84
2023/12/21 01:45:52;;;;;;;5.18;3.42;;;;;;;6.43;59.22;95111.53;6193383;23;20014;-85
2023/12/21 01:48:18;;;;;;;6.97;3.67;;;;;;;6.69;58.45;95116.66;6193718;23;20012;-85
2023/12/21 01:50:44;;;;;;;4.63;2.88;;;;;;;6.78;57.86;95109.75;6168977;23;20008;-84
2023/12/21 01:53:11;;;;;;;4.72;2.92;;;;;;;6.64;58.62;95122.31;6219138;23;20082;-84
2023/12/21 01:55:38;;;;;;;4.80;3.20;;;;;;;6.70;58.58;95123.47;6219290;23;20052;-84
2023/12/21 01:58:04;;;;;;;5.90;3.38;;;;;;;6.75;58.28;95110.84;6193907;23;20020;-85
2023/12/21 02:00:30;;;;;;;4.78;3.33;;;;;;;6.56;58.74;95099.00;6193563;23;20045;-84
2023/12/21 02:02:56;;;;;;;5.20;3.38;;;;;;;6.23;59.66;95090.31;6193183;23;20095;-84
2023/12/21 02:05:22;;;;;;;4.40;3.08;;;;;;;6.50;59.28;95096.25;6193797;23;20010;-85
2023/12/21 02:07:48;;;;;;;5.43;2.83;;;;;;;6.51;58.58;95090.91;6193491;23;20031;-84
2023/12/21 02:10:14;;;;;;;5.30;3.08;;;;;;;6.51;58.85;95083.16;6218269;23;20033;-85
2023/12/21 02:12:39;;;;;;;6.10;2.92;;;;;;;6.61;58.77;95072.72;6193868;23;20008;-84
2023/12/21 02:15:06;;;;;;;5.28;3.05;;;;;;;6.72;58.02;95050.91;6193265;23;20066;-85
2023/12/21 02:17:33;;;;;;;4.47;2.60;;;;;;;6.74;58.34;95072.25;6169144;23;20000;-85
2023/12/21 02:19:59;;;;;;;4.75;2.80;;;;;;;6.70;57.97;95063.19;6218056;23;20014;-85
2023/12/21 02:22:26;;;;;;;4.22;2.75;;;;;;;6.77;57.96;95061.59;6193227;23;20012;-85
2023/12/21 02:24:52;;;;;;;4.50;2.80;;;;;;;6.83;57.77;95045.44;6193395;23;20031;-85
2023/12/21 02:27:18;;;;;;;4.68;2.80;;;;;;;6.74;58.39;95046.41;6193149;23;20012;-85
2023/12/21 02:29:43;;;;;;;4.45;2.92;;;;;;;6.83;58.64;95043.69;6193021;23;20031;-85
2023/12/21 02:32:09;;;;;;;4.70;2.97;;;;;;;6.74;58.82;95020.53;6193454;23;20064;-84
2023/12/21 02:34:34;;;;;;;7.05;3.00;;;;;;;6.75;59.12;95022.97;6193244;23;20012;-85
2023/12/21 02:37:01;;;;;;;5.20;2.65;;;;;;;6.58;59.24;95011.78;6193206;23;20000;-85
2023/12/21 02:39:26;;;;;;;5.05;2.80;;;;;;;6.63;59.57;95009.56;6193340;23;20004;-85
2023/12/21 02:41:53;;;;;;;4.03;2.65;;;;;;;6.99;58.01;95014.47;6193261;23;20008;-84
2023/12/21 02:44:18;;;;;;;3.10;2.50;;;;;;;6.67;58.78;94989.38;6217758;23;20008;-85
2023/12/21 02:46:44;;;;;;;4.47;3.15;;;;;;;6.82;58.48;94986.97;6218607;23;20008;-85
2023/12/21 02:49:09;;;;;;;4.15;2.58;;;;;;;7.00;58.12;94989.41;6192905;23;20012;-84
2023/12/21 02:51:35;;;;;;;4.90;2.80;;;;;;;7.01;57.75;94993.63;6218419;23;20004;-84
2023/12/21 02:54:00;;;;;;;7.47;2.63;;;;;;;7.05;58.02;95011.22;6218072;23;20071;-85
2023/12/21 02:56:29;;;;;;;3.78;2.60;;;;;;;7.02;57.57;94990.84;6193249;23;20103;-85
2023/12/21 02:58:55;;;;;;;4.38;2.78;;;;;;;6.97;57.99;94987.16;6167973;23;20031;-84
2023/12/21 03:01:20;;;;;;;4.15;2.60;;;;;;;7.12;57.55;94990.72;6217659;23;20011;-85
2023/12/21 03:03:46;;;;;;;4.05;2.75;;;;;;;7.04;57.36;94981.19;6217586;23;20039;-84
2023/12/21 03:06:11;;;;;;;4.13;2.40;;;;;;;7.04;57.82;94981.19;6192744;23;20016;-85
2023/12/21 03:08:37;;;;;;;4.43;3.03;;;;;;;6.96;58.42;94975.97;6217405;23;20019;-84
2023/12/21 03:11:02;;;;;;;3.63;2.58;;;;;;;7.02;58.42;94972.75;6217406;23;20004;-84
2023/12/21 03:13:28;;;;;;;4.07;2.70;;;;;;;6.96;58.58;94977.78;6193474;23;20027;-84
2023/12/21 03:15:53;;;;;;;4.90;2.60;;;;;;;6.92;58.73;94966.94;6192554;23;20026;-84
2023/12/21 03:18:19;;;;;;;3.58;2.67;;;;;;;6.95;58.73;94961.47;6192926;23;20022;-85
2023/12/21 03:20:45;;;;;;;4.97;2.85;;;;;;;6.91;58.38;94978.25;6193139;23;20008;-85
2023/12/21 03:23:10;;;;;;;5.10;2.60;;;;;;;6.77;59.08;94981.47;6217088;23;20012;-85
2023/12/21 03:25:35;;;;;;;4.28;2.97;;;;;;;6.83;59.29;94968.72;6192814;23;20114;-84
2023/12/21 03:28:03;;;;;;;5.18;2.60;;;;;;;6.94;58.73;94971.94;6192656;23;20011;-84
2023/12/21 03:30:28;;;;;;;6.15;3.13;;;;;;;6.71;59.53;94957.06;6191413;23;20079;-84
2023/12/21 03:32:55;;;;;;;4.40;3.30;;;;;;;6.45;60.39;94959.75;6217139;23;20054;-84
2023/12/21 03:35:20;;;;;;;5.88;3.15;;;;;;;6.36;60.16;94938.28;6217606;23;20027;-84
2023/12/21 03:37:46;;;;;;;4.57;3.08;;;;;;;6.75;59.33;94950.59;6218070;23;20004;-85
2023/12/21 03:40:11;;;;;;;5.20;2.92;;;;;;;6.73;59.52;94931.06;6192675;23;20081;-84
2023/12/21 03:42:40;;;;;;;4.10;3.10;;;;;;;6.69;59.04;94920.25;6193818;23;20019;-85
2023/12/21 03:45:06;;;;;;;6.28;3.00;;;;;;;6.75;58.85;94919.59;6192637;23;20016;-84
2023/12/21 03:47:32;;;;;;;4.70;3.00;;;;;;;6.94;58.50;94926.22;6192424;23;20062;-84
2023/12/21 03:49:57;;;;;;;3.72;2.75;;;;;;;6.79;58.97;94901.97;6192247;23;20008;-85
2023/12/21 03:52:23;;;;;;;5.78;3.00;;;;;;;6.88;59.16;94907.97;6192913;23;20091;-85
2023/12/21 03:54:48;;;;;;;5.07;3.25;;;;;;;6.84;58.80;94886.81;6217567;23;20027;-85
2023/12/21 03:57:14;;;;;;;4.85;2.90;;;;;;;6.93;58.88;94906.50;6192764;23;20015;-85
2023/12/21 03:59:41;;;;;;;5.05;3.50;;;;;;;6.89;59.31;94900.03;6192702;23;20008;-84
2023/12/21 04:02:11;;;;;;;4.88;2.85;;;;;;;6.51;60.27;94891.97;6217231;23;20011;-84
2023/12/21 04:04:36;;;;;;;3.95;2.90;;;;;;;6.51;60.42;94885.97;6168480;23;20057;-85
2023/12/21 04:07:02;;;;;;;5.03;3.20;;;;;;;6.61;60.04;94895.19;6217095;23;20043;-84
2023/12/21 04:09:28;;;;;;;4.00;2.83;;;;;;;6.56;60.25;94894.06;6192257;23;20012;-85
2023/12/21 04:11:53;;;;;;;5.00;2.80;;;;;;;6.60;60.35;94869.50;6192718;23;20008;-84
2023/12/21 04:14:18;;;;;;;4.63;2.50;;;;;;;6.78;60.27;94870.16;6192792;23;20016;-84
2023/12/21 04:16:44;;;;;;;3.95;2.80;;;;;;;6.68;60.55;94850.63;6217093;23;20000;-84
2023/12/21 04:19:09;;;;;;;5.20;2.65;;;;;;;6.98;59.36;94868.03;6192532;23;20008;-84
2023/12/21 04:21:35;;;;;;;4.45;2.60;;;;;;;6.96;59.63;94890.66;6217490;23;20010;-85
2023/12/21 04:24:01;;;;;;;3.75;3.05;;;;;;;6.92;59.81;94884.19;6192897;23;20079;-84
2023/12/21 04:26:26;;;;;;;4.00;2.90;;;;;;;6.95;60.37;94893.41;6192360;23;20068;-84
2023/12/21 04:28:52;;;;;;;6.57;3.00;;;;;;;7.01;60.23;94879.84;6192430;23;20044;-84
2023/12/21 04:31:22;;;;;;;3.38;2.70;;;;;;;6.91;59.50;94880.03;6192365;23;20043;-85
2023/12/21 04:33:51;;;;;;;4.18;2.60;;;;;;;6.93;59.79;94895.34;6217386;23;20070;-84
2023/12/21 04:36:18;;;;;;;4.35;2.70;;;;;;;7.23;58.72;94881.75;6192634;23;20095;-84
2023/12/21 04:38:43;;;;;;;4.60;3.00;;;;;;;6.94;60.26;94884.84;6217298;23;20047;-84
2023/12/21 04:41:09;;;;;;;5.20;3.00;;;;;;;7.03;59.65;94876.13;6192543;23;20016;-85
2023/12/21 04:43:34;;;;;;;3.65;2.63;;;;;;;6.93;60.03;94862.56;6192308;23;20015;-85
2023/12/21 04:46:00;;;;;;;3.42;2.67;;;;;;;6.89;59.95;94860.44;6192357;23;20008;-84
2023/12/21 04:48:26;;;;;;;4.50;2.58;;;;;;;6.88;59.65;94877.75;6192279;23;20024;-85
2023/12/21 04:50:52;;;;;;;2.72;2.42;;;;;;;6.84;59.54;94868.72;6167579;23;20087;-84
2023/12/21 04:53:17;;;;;;;4.47;3.05;;;;;;;7.02;59.20;94878.84;6167391;23;20031;-85
2023/12/21 04:55:43;;;;;;;5.03;3.03;;;;;;;6.85;60.96;94884.06;6217675;23;20004;-84
2023/12/21 04:58:08;;;;;;;4.10;3.08;;;;;;;6.79;60.77;94869.19;6192397;23;20023;-84
2023/12/21 05:00:34;;;;;;;4.80;3.40;;;;;;;6.94;60.67;94866.75;6218051;23;20008;-84
2023/12/21 05:03:00;;;;;;;6.10;3.42;;;;;;;6.73;60.66;94856.13;6194244;23;20012;-85
2023/12/21 05:05:27;;;;;;;5.85;3.00;;;;;;;6.73;60.63;94850.94;6218762;23;20008;-84
2023/12/21 05:07:55;;;;;;;4.90;3.17;;;;;;;6.73;60.68;94846.56;6181274;23;20078;-84
2023/12/21 05:10:21;;;;;;;4.55;3.10;;;;;;;6.88;60.20;94841.56;6189134;23;20005;-84
2023/12/21 05:12:46;;;;;;;3.95;2.97;;;;;;;6.98;59.53;94837.00;6139563;23;20011;-85
2023/12/21 05:15:12;;;;;;;4.50;2.47;;;;;;;6.92;59.46;94829.91;6189077;23;20096;-84
2023/12/21 05:17:37;;;;;;;3.40;2.50;;;;;;;6.84;59.92;94822.19;6164477;23;20008;-85
2023/12/21 05:20:03;;;;;;;4.35;2.20;;;;;;;7.04;59.25;94823.44;6187806;23;20015;-85
2023/12/21 05:22:32;;;;;;;5.63;3.30;;;;;;;6.83;60.36;94808.44;6138324;23;20075;-84
2023/12/21 05:24:57;;;;;;;3.83;2.90;;;;;;;6.96;59.88;94807.91;6139352;23;20004;-85
2023/12/21 05:27:22;;;;;;;4.20;2.90;;;;;;;6.94;59.99;94804.69;6164441;23;20012;-85
2023/12/21 05:29:48;;;;;;;3.58;2.85;;;;;;;6.86;60.06;94781.47;6163956;23;20009;-85
2023/12/21 05:32:15;;;;;;;3.00;2.50;;;;;;;6.97;59.77;94788.06;6163871;23;20040;-85
2023/12/21 05:34:40;;;;;;;3.60;2.00;;;;;;;7.09;59.27;94791.09;6188714;23;20024;-84
2023/12/21 05:37:05;;;;;;;2.80;1.92;;;;;;;7.02;59.80;94786.56;6188840;23;20038;-84
2023/12/21 05:39:31;;;;;;;3.58;2.38;;;;;;;7.17;60.06;94783.31;6139239;23;20017;-85
2023/12/21 05:41:57;;;;;;;2.60;2.10;;;;;;;7.23;59.64;94772.28;6163792;23;20111;-85
2023/12/21 05:44:22;;;;;;;2.88;2.35;;;;;;;7.26;60.07;94777.13;6164335;23;20037;-84
2023/12/21 05:46:48;;;;;;;2.30;2.00;;;;;;;7.05;60.94;94781.06;6164030;23;20020;-85
2023/12/21 05:49:13;;;;;;;3.67;1.80;;;;;;;6.98;60.78;94784.50;6163592;23;20008;-85
2023/12/21 05:51:39;;;;;;;2.30;1.60;;;;;;;7.01;60.73;94772.03;6164207;23;20023;-85
2023/12/21 05:54:04;;;;;;;2.38;1.30;;;;;;;7.12;59.87;94785.56;6139501;23;20005;-84
2023/12/21 05:56:30;;;;;;;6.10;2.55;;;;;;;7.35;59.40;94776.13;6163914;23;20001;-84
2023/12/21 05:58:55;;;;;;;4.35;2.92;;;;;;;7.32;59.77;94780.81;6138977;23;20043;-85
2023/12/21 06:01:22;;;;;;;4.53;3.47;;;;;;;6.91;61.43;94781.78;6188362;23;20048;-85
2023/12/21 06:03:47;;;;;;;5.65;3.85;;;;;;;6.99;61.18;94779.16;6163935;23;20016;-85
2023/12/21 06:06:13;;;;;;;4.55;3.20;;;;;;;6.50;62.32;94760.38;6137466;23;20005;-84
2023/12/21 06:08:39;;;;;;;4.00;3.20;;;;;;;6.64;61.87;94770.84;6159405;23;20087;-85
2023/12/21 06:11:07;;;;;;;4.63;3.70;;;;;;;6.78;61.03;94760.81;6167018;23;20015;-84
2023/12/21 06:13:35;;;;;;;4.75;3.30;;;;;;;6.85;60.54;94762.56;6192252;23;20000;-85
2023/12/21 06:16:01;;;;;;;6.60;4.10;;;;;;;6.59;61.52;94759.38;6193754;23;20101;-85
2023/12/21 06:18:26;;;;;;;4.22;3.65;;;;;;;6.93;60.11;94748.81;6192901;23;20008;-85
2023/12/21 06:20:54;;;;;;;7.30;4.30;;;;;;;6.60;61.30;94735.94;6193608;23;20008;-84
2023/12/21 06:23:20;;;;;;;5.57;3.97;;;;;;;6.30;62.05;94726.31;6218548;23;20008;-85
2023/12/21 06:25:45;;;;;;;5.55;3.85;;;;;;;6.61;61.44;94737.56;6192530;23;20008;-84
2023/12/21 06:28:14;;;;;;;5.57;3.28;;;;;;;6.78;60.74;94720.25;6193119;23;20067;-84
2023/12/21 06:30:39;;;;;;;5.32;3.75;;;;;;;6.93;60.79;94740.22;6193337;23;20016;-84
2023/12/21 06:33:05;;;;;;;6.97;4.00;;;;;;;6.98;60.53;94710.31;6193458;23;20004;-85
2023/12/21 06:35:30;;;;;;;4.63;4.00;;;;;;;6.91;60.94;94729.25;6193806;23;20039;-85
2023/12/21 06:38:01;;;;;;;5.20;3.95;;;;;;;6.87;61.31;94730.56;6192711;23;20012;-85
2023/12/21 06:40:27;;;;;;;5.70;3.97;;;;;;;7.10;60.16;94715.94;6194185;23;20004;-85
2023/12/21 06:42:52;;;;;;;5.80;3.70;;;;;;;7.01;60.32;94717.75;6217784;23;20031;-84
2023/12/21 06:45:17;;;;;;;9.88;7.32;;;;;;;7.14;59.99;94709.44;6192692;23;20031;-84
2023/12/21 06:47:43;;;;;;;16.17;10.75;;;;;;;6.94;60.33;94706.44;6193248;23;20004;-85
2023/12/21 06:50:08;;;;;;;18.42;15.10;;;;;;;7.11;59.92;94719.31;6193105;23;20099;-85
2023/12/21 06:52:34;;;;;;;18.40;16.40;;;;;;;7.27;58.96;94715.84;6192847;23;20004;-85
2023/12/21 06:54:59;;;;;;;10.30;9.00;;;;;;;7.51;58.47;94717.50;6193083;23;20074;-85
2023/12/21 06:57:25;;;;;;;11.77;10.57;;;;;;;7.50;58.31;94713.28;6192937;23;20034;-85
2023/12/21 06:59:50;;;;;;;20.35;14.00;;;;;;;7.49;58.54;94714.28;6218199;23;20039;-85
2023/12/21 07:02:16;;;;;;;17.20;13.23;;;;;;;7.53;58.10;94706.00;6192708;23;20008;-85
2023/12/21 07:04:44;;;;;;;15.75;11.23;;;;;;;7.58;58.98;94714.06;6192868;23;20027;-84
2023/12/21 07:07:09;;;;;;;4.65;3.30;;;;;;;7.54;59.60;94728.31;6167619;23;20016;-85
2023/12/21 07:09:35;;;;;;;3.50;1.98;;;;;;;7.28;60.42;94728.63;6192871;23;20008;-85
2023/12/21 07:12:00;;;;;;;4.57;2.38;;;;;;;7.43;60.43;94732.09;6191253;23;20015;-84
2023/12/21 07:14:26;;;;;;;3.83;2.15;;;;;;;7.38;59.73;94725.81;6192475;23;20012;-85
2023/12/21 07:16:53;;;;;;;4.35;2.38;;;;;;;7.41;59.40;94697.03;6192566;23;20012;-85
2023/12/21 07:19:18;;;;;;;4.25;2.90;;;;;;;7.46;58.52;94680.97;6191629;23;20016;-85
2023/12/21 07:21:44;;;;;;;5.32;3.00;;;;;;;7.24;59.62;94678.19;6192759;23;20019;-84
2023/12/21 07:24:09;;;;;;;3.83;2.78;;;;;;;6.95;60.99;94692.56;6192703;23;20012;-84
2023/12/21 07:26:35;;;;;;;4.10;2.78;;;;;;;7.14;60.44;94696.53;6217456;23;20000;-85
2023/12/21 07:29:00;;;;;;;4.97;3.10;;;;;;;7.16;60.04;94689.41;6192708;23;20055;-85
2023/12/21 07:31:26;;;;;;;4.47;2.95;;;;;;;7.16;61.13;94691.97;6192686;23;20040;-85
2023/12/21 07:33:51;;;;;;;7.32;4.75;;;;;;;7.43;59.63;94695.88;6193042;23;20030;-85
2023/12/21 07:36:17;;;;;;;9.77;5.68;;;;;;;7.51;58.57;94696.81;6217344;23;20004;-85
2023/12/21 07:38:42;;;;;;;8.25;6.40;;;;;;;7.57;58.76;94701.28;6192167;23;20015;-84
2023/12/21 07:41:08;;;;;;;7.18;4.60;;;;;;;7.33;59.18;94687.53;6192508;23;20015;-85
2023/12/21 07:43:34;;;;;;;5.10;4.60;;;;;;;7.38;58.90;94697.34;6217521;23;20111;-85
2023/12/21 07:45:59;;;;;;;6.20;4.07;;;;;;;7.44;58.81;94687.16;6216324;23;20019;-86
2023/12/21 07:48:24;;;;;;;11.48;5.88;;;;;;;7.40;59.01;94701.38;6192490;23;20046;-85
2023/12/21 07:50:51;;;;;;;7.47;4.43;;;;;;;7.34;58.75;94681.38;6192353;23;20019;-85
2023/12/21 07:53:17;;;;;;;6.13;4.60;;;;;;;7.44;58.95;94702.66;6192000;23;20011;-84
2023/12/21 07:55:42;;;;;;;6.78;4.75;;;;;;;7.31;59.40;94699.00;6191982;23;20008;-85
2023/12/21 07:58:08;;;;;;;5.47;3.92;;;;;;;7.45;59.00;94703.47;6192242;23;20008;-85
2023/12/21 08:00:33;;;;;;;6.93;4.60;;;;;;;7.44;58.83;94707.03;6191823;23;20008;-85
2023/12/21 08:02:58;;;;;;;6.10;4.28;;;;;;;7.60;57.81;94699.16;6191452;23;20018;-85
2023/12/21 08:05:24;;;;;;;5.00;4.18;;;;;;;7.48;58.42;94686.78;6192573;23;20012;-85
2023/12/21 08:07:50;;;;;;;4.00;3.40;;;;;;;7.59;58.37;94691.56;6192027;23;20019;-85
2023/12/21 08:10:16;;;;;;;4.65;3.50;;;;;;;7.63;58.66;94692.84;6217249;23;20008;-85
2023/12/21 08:12:42;;;;;;;7.00;3.55;;;;;;;7.68;58.96;94689.75;6192721;23;20012;-85
2023/12/21 08:15:10;;;;;;;4.68;3.70;;;;;;;7.62;59.49;94681.69;6217024;23;20077;-85
2023/12/21 08:17:35;;;;;;;3.63;3.25;;;;;;;7.61;59.29;94681.84;6167924;23;20011;-85
2023/12/21 08:20:00;;;;;;;5.40;3.50;;;;;;;7.60;58.40;94660.34;6191747;23;20012;-85
2023/12/21 08:22:26;;;;;;;4.90;2.95;;;;;;;7.35;58.57;94649.38;6192184;23;20035;-85
2023/12/21 08:24:52;;;;;;;4.88;3.20;;;;;;;7.21;58.87;94635.34;6217146;23;20008;-86
2023/12/21 08:27:19;;;;;;;6.28;3.33;;;;;;;7.40;58.82;94634.09;6217130;23;20000;-85
2023/12/21 08:29:44;;;;;;;4.53;2.95;;;;;;;7.46;58.14;94637.78;6191243;23;20012;-87
2023/12/21 08:32:10;;;;;;;3.63;2.83;;;;;;;7.20;59.18;94623.41;6192777;23;20000;-86
2023/12/21 08:34:35;;;;;;;5.43;3.15;;;;;;;7.34;59.56;94623.66;6191605;23;20023;-86
2023/12/21 08:37:01;;;;;;;3.20;2.60;;;;;;;7.26;59.45;94614.16;6194735;23;20035;-86
2023/12/21 08:39:26;;;;;;;3.65;2.72;;;;;;;7.53;58.90;94627.56;6194350;23;20015;-85
2023/12/21 08:41:55;;;;;;;3.70;2.90;;;;;;;7.73;57.95;94623.53;6218905;23;20004;-85
2023/12/21 08:44:20;;;;;;;3.97;2.45;;;;;;;7.69;58.07;94624.03;6193791;23;20015;-85
2023/12/21 08:46:46;;;;;;;3.20;2.50;;;;;;;7.91;57.88;94615.44;6194092;23;20012;-86
2023/12/21 08:49:15;;;;;;;3.33;2.35;;;;;;;7.78;56.77;94607.47;6194536;23;20074;-86
2023/12/21 08:51:41;;;;;;;3.00;2.30;;;;;;;7.82;57.47;94617.31;6219040;23;20007;-85
2023/12/21 08:54:07;;;;;;;2.60;2.28;;;;;;;7.94;57.84;94622.03;6194373;23;20012;-86
2023/12/21 08:56:33;;;;;;;3.38;2.50;;;;;;;8.03;58.25;94624.41;6219284;23;20004;-86
2023/12/21 08:58:58;;;;;;;4.97;2.80;;;;;;;8.11;58.04;94626.13;6193939;23;20008;-86
2023/12/21 09:03:49;;;;;;;4.25;3.10;;;;;;;8.10;58.38;94595.22;6240881;22;20032;-86
2023/12/21 09:06:14;;;;;;;4.55;2.90;;;;;;;8.27;57.26;94601.03;6192563;23;20008;-85
2023/12/21 09:08:41;;;;;;;3.78;2.60;;;;;;;8.20;57.47;94606.09;6191606;23;20007;-85
2023/12/21 09:11:07;;;;;;;4.38;3.03;;;;;;;8.43;56.70;94603.44;6194182;23;20011;-85
2023/12/21 09:13:32;;;;;;;7.53;4.07;;;;;;;8.03;58.49;94618.41;6195960;23;20016;-86
2023/12/21 09:15:58;;;;;;;5.25;3.40;;;;;;;8.17;58.32;94625.41;6195081;23;20004;-86
2023/12/21 09:18:23;;;;;;;5.30;3.53;;;;;;;8.16;59.03;94622.97;6168065;23;20031;-86
2023/12/21 09:20:49;;;;;;;5.05;3.80;;;;;;;8.61;57.37;94621.25;6193282;23;20040;-85
2023/12/21 09:23:16;;;;;;;6.60;4.38;;;;;;;8.13;58.53;94616.38;6193150;23;20018;-86
2023/12/21 09:25:41;;;;;;;8.30;5.47;;;;;;;8.27;58.04;94616.56;6193148;23;20012;-87
2023/12/21 09:28:07;;;;;;;7.45;4.95;;;;;;;7.81;59.15;94609.72;6193247;23;20039;-86
2023/12/21 09:30:32;;;;;;;5.95;5.05;;;;;;;7.72;60.13;94627.09;6194854;23;20003;-86
2023/12/21 09:32:59;;;;;;;7.90;4.82;;;;;;;7.63;59.99;94625.53;6218507;23;20007;-85
2023/12/21 09:35:25;;;;;;;6.28;4.30;;;;;;;7.83;58.75;94638.81;6194149;23;20031;-84
2023/12/21 09:37:51;;;;;;;6.07;4.00;;;;;;;7.93;58.64;94630.81;6168437;23;20000;-86
2023/12/21 09:40:18;;;;;;;4.53;3.67;;;;;;;8.09;58.49;94656.56;6193825;23;20009;-86
2023/12/21 09:42:49;;;;;;;4.47;3.60;;;;;;;8.18;58.15;94667.66;6194301;23;20011;-86
2023/12/21 09:45:19;;;;;;;3.35;2.03;;;;;;;8.08;56.52;94669.69;6218607;23;20000;-87
2023/12/21 09:47:45;;;;;;;4.35;2.60;;;;;;;8.35;56.64;94657.94;6193365;23;20087;-87
2023/12/21 09:50:12;;;;;;;3.78;2.50;;;;;;;8.16;57.27;94651.47;6193143;23;20008;-86
2023/12/21 09:52:39;;;;;;;2.88;2.17;;;;;;;8.28;56.43;94649.25;6218511;23;20008;-86
2023/12/21 09:55:07;;;;;;;3.03;2.40;;;;;;;7.97;58.02;94655.38;6218534;23;20053;-86
2023/12/21 09:57:39;;;;;;;3.47;2.05;;;;;;;7.96;57.58;94664.13;6193154;23;20014;-86
2023/12/21 10:00:06;;;;;;;2.75;1.60;;;;;;;8.00;56.81;94649.84;6218642;23;20004;-86
2023/12/21 10:02:31;;;;;;;1.25;1.15;;;;;;;7.84;56.65;94637.81;6193549;23;20008;-86
2023/12/21 10:04:57;;;;;;;2.90;2.00;;;;;;;8.11;58.90;94646.84;6219454;22;20015;-87
2023/12/21 10:07:25;;;;;;;3.88;2.35;;;;;;;8.24;59.18;94635.84;6223531;22;20012;-86
2023/12/21 10:09:51;;;;;;;2.78;2.20;;;;;;;8.40;58.04;94648.66;6248613;22;20007;-86
2023/12/21 10:12:16;;;;;;;3.17;2.08;;;;;;;8.53;57.59;94637.69;6249197;22;20003;-86
2023/12/21 10:14:43;;;;;;;2.00;1.60;;;;;;;8.43;56.80;94613.03;6224065;22;20031;-86
2023/12/21 10:17:11;;;;;;;3.47;1.90;;;;;;;8.46;56.64;94616.06;6223617;22;20000;-85
2023/12/21 10:19:37;;;;;;;3.35;2.08;;;;;;;8.51;57.17;94595.59;6198301;22;20019;-86
2023/12/21 10:22:02;;;;;;;5.63;2.42;;;;;;;8.43;57.36;94593.09;6199014;22;20007;-86
2023/12/21 10:24:32;;;;;;;4.45;2.63;;;;;;;8.12;59.12;94585.47;6198696;22;20082;-86
2023/12/21 10:26:58;;;;;;;2.85;2.10;;;;;;;8.28;58.07;94566.34;6199115;22;20082;-87
2023/12/21 10:29:24;;;;;;;5.38;2.22;;;;;;;8.17;59.16;94552.88;6248626;22;20038;-86
2023/12/21 10:31:50;;;;;;;3.80;2.33;;;;;;;8.31;59.29;94543.47;6199166;22;20007;-86
2023/12/21 10:34:15;;;;;;;2.53;1.95;;;;;;;8.45;59.18;94551.44;6248757;22;20023;-86
2023/12/21 10:36:45;;;;;;;3.45;2.60;;;;;;;8.43;59.83;94540.47;6223763;22;20018;-86
2023/12/21 10:39:12;;;;;;;2.30;1.80;;;;;;;8.65;58.70;94544.72;6248609;22;20110;-86
2023/12/21 10:41:43;;;;;;;1.67;1.15;;;;;;;8.71;57.27;94504.31;6224014;22;20110;-85
2023/12/21 10:44:13;;;;;;;4.10;1.50;;;;;;;8.84;57.32;94501.06;6248581;22;19999;-86
2023/12/21 10:46:41;;;;;;;2.85;1.50;;;;;;;8.77;57.90;94490.59;6223283;22;20008;-86
2023/12/21 10:49:10;;;;;;;3.33;1.40;;;;;;;8.86;58.29;94475.75;6248252;22;20007;-87
2023/12/21 10:51:37;;;;;;;2.17;1.70;;;;;;;8.97;58.43;94473.44;6248411;22;20008;-85
2023/12/21 10:54:06;;;;;;;2.20;1.50;;;;;;;9.03;58.08;94469.31;6247664;22;20004;-86
2023/12/21 10:56:32;;;;;;;5.93;3.97;;;;;;;9.12;57.83;94473.38;6247216;22;20003;-86
2023/12/21 10:59:02;;;;;;;8.50;6.38;;;;;;;8.93;58.94;94464.44;6222425;22;20035;-86
2023/12/21 11:01:29;;;;;;;15.30;11.20;;;;;;;9.10;58.10;94464.16;6248348;22;20000;-86
2023/12/21 11:03:59;;;;;;;15.30;10.93;;;;;;;8.87;58.44;94478.16;6223085;22;20024;-85
2023/12/21 11:06:25;;;;;;;9.65;6.65;;;;;;;8.99;58.10;94468.06;6247885;22;20022;-86
2023/12/21 11:08:51;;;;;;;4.95;3.53;;;;;;;9.14;57.17;94470.59;6223004;22;20034;-86
2023/12/21 11:11:22;;;;;;;6.47;4.60;;;;;;;9.03;57.88;94487.47;6222769;22;20027;-86
2023/12/21 11:13:52;;;;;;;4.72;3.50;;;;;;;9.22;57.62;94486.03;6248080;22;20000;-86
2023/12/21 11:16:22;;;;;;;3.05;2.45;;;;;;;9.23;57.40;94479.84;6223992;22;20000;-86
2023/12/21 11:18:53;;;;;;;2.95;2.38;;;;;;;8.94;58.87;94462.63;6248290;22;20007;-86
2023/12/21 11:21:26;;;;;;;2.55;1.95;;;;;;;8.84;58.97;94455.16;6248389;22;20054;-86
2023/12/21 11:23:52;;;;;;;2.15;1.90;;;;;;;8.99;59.63;94457.72;6223911;22;20091;-86
2023/12/21 11:26:27;;;;;;;2.15;1.80;;;;;;;9.02;59.20;94446.94;6248394;22;20031;-85
2023/12/21 11:29:10;;;;;;;2.47;2.05;;;;;;;9.07;58.46;94441.22;6248157;22;19996;-85
2023/12/21 11:31:40;;;;;;;1.92;1.73;;;;;;;9.17;58.80;94439.09;6247805;22;20035;-86
2023/12/21 11:34:12;;;;;;;2.53;2.20;;;;;;;9.48;57.59;94414.53;6248065;22;20016;-86
2023/12/21 11:36:38;;;;;;;4.55;2.65;;;;;;;9.13;57.45;94420.50;6247877;22;20228;-87
2023/12/21 11:39:11;;;;;;;4.65;3.00;;;;;;;9.16;56.63;94421.94;6197611;22;20008;-86